createdAt,value
2023-02-25T00:00:20.173Z,4.3
2023-02-25T00:01:28.502Z,4.3
2023-02-25T00:02:36.942Z,4.3
2023-02-25T00:03:45.451Z,5.2
2023-02-25T00:04:53.757Z,5.2
2023-02-25T00:06:02.213Z,5.2
2023-02-25T00:07:10.642Z,5.1
2023-02-25T00:08:18.993Z,5.1
2023-02-25T00:09:27.336Z,5.1
2023-02-25T00:10:35.883Z,4.3
2023-02-25T00:11:44.224Z,4.3
2023-02-25T00:12:52.577Z,4.3
2023-02-25T00:14:01.132Z,4.3
2023-02-25T00:15:09.505Z,4.3
2023-02-25T00:16:17.837Z,4.3
2023-02-25T00:17:26.358Z,4.3
2023-02-25T00:18:34.711Z,4.3
2023-02-25T00:19:43.032Z,4.3
2023-02-25T00:20:51.577Z,2.9
2023-02-25T00:21:59.963Z,2.9
2023-02-25T00:23:08.299Z,2.9
2023-02-25T00:24:17.280Z,4.1
2023-02-25T00:25:25.191Z,4.1
2023-02-25T00:26:33.533Z,4.1
2023-02-25T00:27:42.095Z,4.3
2023-02-25T00:28:50.441Z,4.3
2023-02-25T00:29:58.785Z,4.3
2023-02-25T00:31:07.422Z,4.8
2023-02-25T00:32:15.849Z,4.8
2023-02-25T00:33:24.023Z,4.8
2023-02-25T00:34:32.584Z,3.2
2023-02-25T00:35:40.923Z,3.2
2023-02-25T00:36:49.299Z,3.2
2023-02-25T00:38:10.188Z,5.3
2023-02-25T00:39:06.242Z,5.3
2023-02-25T00:40:14.543Z,5.3
2023-02-25T00:41:23.069Z,5.5
2023-02-25T00:42:31.436Z,5.5
2023-02-25T00:43:39.788Z,5.5
2023-02-25T00:44:48.362Z,5
2023-02-25T00:45:56.729Z,5
2023-02-25T00:47:05.055Z,5
2023-02-25T00:48:13.613Z,5.3
2023-02-25T00:49:31.976Z,5.3
2023-02-25T00:50:30.315Z,5.3
2023-02-25T00:51:38.870Z,3.7
2023-02-25T00:52:47.221Z,3.7
2023-02-25T00:53:55.569Z,3.7
2023-02-25T00:55:04.120Z,5.9
2023-02-25T00:56:12.451Z,5.9
2023-02-25T00:57:20.793Z,5.9
2023-02-25T00:58:29.338Z,3.8
2023-02-25T00:59:37.694Z,3.8
2023-02-25T01:00:51.456Z,3.8
2023-02-25T01:01:54.675Z,5.8
2023-02-25T01:03:03.002Z,5.8
2023-02-25T01:04:11.309Z,5.8
2023-02-25T01:05:19.867Z,6.7
2023-02-25T01:06:28.220Z,6.7
2023-02-25T01:07:36.554Z,6.7
2023-02-25T01:08:45.107Z,5
2023-02-25T01:09:53.497Z,5
2023-02-25T01:11:01.804Z,5
2023-02-25T01:12:10.348Z,10
2023-02-25T01:13:18.693Z,10
2023-02-25T01:14:27.047Z,10
2023-02-25T01:15:35.594Z,4.2
2023-02-25T01:16:43.940Z,4.2
2023-02-25T01:17:52.289Z,4.2
2023-02-25T01:19:00.840Z,6.8
2023-02-25T01:20:09.195Z,6.8
2023-02-25T01:21:17.530Z,6.8
2023-02-25T01:22:26.077Z,7.4
2023-02-25T01:23:34.422Z,7.4
2023-02-25T01:24:42.783Z,7.4
2023-02-25T01:25:51.357Z,9.5
2023-02-25T01:26:59.662Z,9.5
2023-02-25T01:28:08.037Z,9.5
2023-02-25T01:29:16.582Z,5.7
2023-02-25T01:30:24.946Z,5.7
2023-02-25T01:31:33.461Z,5.7
2023-02-25T01:32:42.042Z,4.9
2023-02-25T01:33:50.210Z,4.9
2023-02-25T01:34:58.559Z,4.9
2023-02-25T01:36:07.106Z,4.7
2023-02-25T01:37:15.456Z,4.7
2023-02-25T01:38:23.808Z,4.7
2023-02-25T01:39:32.398Z,4.8
2023-02-25T01:40:40.730Z,4.8
2023-02-25T01:41:49.092Z,4.8
2023-02-25T01:42:57.655Z,5.7
2023-02-25T01:44:06.003Z,5.7
2023-02-25T01:45:14.365Z,5.7
2023-02-25T01:46:23.245Z,5.3
2023-02-25T01:47:31.260Z,5.3
2023-02-25T01:48:39.602Z,5.3
2023-02-25T01:49:48.169Z,5.3
2023-02-25T01:50:56.513Z,5.3
2023-02-25T01:52:04.877Z,5.3
2023-02-25T01:53:13.429Z,6.6
2023-02-25T01:54:21.761Z,6.6
2023-02-25T01:55:30.128Z,6.6
2023-02-25T01:56:38.683Z,5.5
2023-02-25T01:57:47.058Z,5.5
2023-02-25T01:58:55.400Z,5.5
2023-02-25T02:00:03.954Z,4.1
2023-02-25T02:01:12.373Z,4.1
2023-02-25T02:02:20.702Z,4.1
2023-02-25T02:03:29.182Z,5
2023-02-25T02:04:37.552Z,5
2023-02-25T02:05:45.885Z,5
2023-02-25T02:06:54.445Z,5.2
2023-02-25T02:08:02.800Z,5.2
2023-02-25T02:09:11.139Z,5.2
2023-02-25T02:10:19.713Z,4.3
2023-02-25T02:11:28.045Z,4.3
2023-02-25T02:12:36.383Z,4.3
2023-02-25T02:13:44.943Z,5.2
2023-02-25T02:14:53.260Z,5.2
2023-02-25T02:16:01.645Z,5.2
2023-02-25T02:17:10.149Z,4.2
2023-02-25T02:18:18.509Z,4.2
2023-02-25T02:19:26.842Z,4.2
2023-02-25T02:20:35.397Z,4.7
2023-02-25T02:21:43.740Z,4.7
2023-02-25T02:22:52.095Z,4.7
2023-02-25T02:24:00.695Z,5.1
2023-02-25T02:25:09.069Z,5.1
2023-02-25T02:26:17.392Z,5.1
2023-02-25T02:27:25.932Z,5.8
2023-02-25T02:28:34.294Z,5.8
2023-02-25T02:29:42.675Z,5.8
2023-02-25T02:30:51.244Z,3.8
2023-02-25T02:31:59.642Z,3.8
2023-02-25T02:33:07.886Z,3.8
2023-02-25T02:34:16.422Z,3.3
2023-02-25T02:35:24.785Z,3.3
2023-02-25T02:36:33.138Z,3.3
2023-02-25T02:37:41.695Z,3.9
2023-02-25T02:38:50.039Z,3.9
2023-02-25T02:39:58.422Z,3.9
2023-02-25T02:41:06.959Z,4.7
2023-02-25T02:42:15.303Z,4.7
2023-02-25T02:43:23.653Z,4.7
2023-02-25T02:44:32.206Z,6.3
2023-02-25T02:45:40.642Z,6.3
2023-02-25T02:46:48.904Z,6.3
2023-02-25T02:47:57.459Z,4.4
2023-02-25T02:49:05.805Z,4.4
2023-02-25T02:50:14.169Z,4.4
2023-02-25T02:51:22.711Z,5.9
2023-02-25T02:52:31.070Z,5.9
2023-02-25T02:53:39.404Z,5.9
2023-02-25T02:54:47.968Z,4.8
2023-02-25T02:55:56.300Z,4.8
2023-02-25T02:57:04.657Z,4.8
2023-02-25T02:58:13.215Z,4.1
2023-02-25T02:59:21.605Z,4.1
2023-02-25T03:00:29.898Z,4.1
2023-02-25T03:01:38.496Z,3.7
2023-02-25T03:02:46.816Z,3.7
2023-02-25T03:03:55.187Z,3.7
2023-02-25T03:05:03.724Z,5.6
2023-02-25T03:06:12.056Z,5.6
2023-02-25T03:07:20.397Z,5.6
2023-02-25T03:08:28.963Z,3.9
2023-02-25T03:09:37.280Z,3.9
2023-02-25T03:10:45.632Z,3.9
2023-02-25T03:11:54.191Z,4.4
2023-02-25T03:13:02.534Z,4.4
2023-02-25T03:14:10.877Z,4.4
2023-02-25T03:15:19.437Z,5.2
2023-02-25T03:16:27.820Z,5.2
2023-02-25T03:17:36.165Z,5.2
2023-02-25T03:18:44.688Z,3.9
2023-02-25T03:19:53.032Z,3.9
2023-02-25T03:21:01.376Z,3.9
2023-02-25T03:22:09.931Z,3
2023-02-25T03:23:18.282Z,3
2023-02-25T03:24:26.627Z,3
2023-02-25T03:25:35.207Z,4.1
2023-02-25T03:26:43.544Z,4.1
2023-02-25T03:27:51.895Z,4.1
2023-02-25T03:29:00.443Z,3.5
2023-02-25T03:30:08.797Z,3.5
2023-02-25T03:31:17.190Z,3.5
2023-02-25T03:32:25.801Z,4.7
2023-02-25T03:33:34.035Z,4.7
2023-02-25T03:34:42.364Z,4.7
2023-02-25T03:35:50.914Z,4.2
2023-02-25T03:36:59.262Z,4.2
2023-02-25T03:38:07.594Z,4.2
2023-02-25T03:39:16.139Z,3.6
2023-02-25T03:40:24.479Z,3.6
2023-02-25T03:41:32.825Z,3.6
2023-02-25T03:42:41.380Z,4.9
2023-02-25T03:43:49.717Z,4.9
2023-02-25T03:44:58.087Z,4.9
2023-02-25T03:46:06.681Z,2.8
2023-02-25T03:47:14.975Z,2.8
2023-02-25T03:48:23.312Z,2.8
2023-02-25T03:49:31.899Z,1.7
2023-02-25T03:50:40.217Z,1.7
2023-02-25T03:51:48.568Z,1.7
2023-02-25T03:52:57.115Z,3.1
2023-02-25T03:54:05.450Z,3.1
2023-02-25T03:55:13.798Z,3.1
2023-02-25T03:56:22.703Z,2.7
2023-02-25T03:57:30.692Z,2.7
2023-02-25T03:58:39.066Z,2.7
2023-02-25T03:59:47.623Z,2.8
2023-02-25T04:00:56.525Z,2.8
2023-02-25T04:02:04.881Z,2.8
2023-02-25T04:03:13.408Z,2.3
2023-02-25T04:04:21.823Z,2.3
2023-02-25T04:05:30.161Z,2.3
2023-02-25T04:06:38.684Z,2.9
2023-02-25T04:07:47.032Z,2.9
2023-02-25T04:08:55.386Z,2.9
2023-02-25T04:10:03.939Z,3.2
2023-02-25T04:11:12.288Z,3.2
2023-02-25T04:12:20.631Z,3.2
2023-02-25T04:13:29.179Z,2
2023-02-25T04:14:37.520Z,2
2023-02-25T04:15:45.931Z,2
2023-02-25T04:16:54.453Z,2.9
2023-02-25T04:18:02.787Z,2.9
2023-02-25T04:19:11.126Z,2.9
2023-02-25T04:20:19.741Z,2.5
2023-02-25T04:21:28.071Z,2.5
2023-02-25T04:22:36.395Z,2.5
2023-02-25T04:23:44.966Z,2.2
2023-02-25T04:24:53.301Z,2.2
2023-02-25T04:26:01.665Z,2.2
2023-02-25T04:27:10.189Z,2.5
2023-02-25T04:28:18.518Z,2.5
2023-02-25T04:29:26.859Z,2.5
2023-02-25T04:30:35.445Z,1.9
2023-02-25T04:31:43.875Z,1.9
2023-02-25T04:32:52.160Z,1.9
2023-02-25T04:34:00.650Z,3.3
2023-02-25T04:35:08.991Z,3.3
2023-02-25T04:36:17.347Z,3.3
2023-02-25T04:37:25.921Z,2.5
2023-02-25T04:38:34.233Z,2.5
2023-02-25T04:39:42.593Z,2.5
2023-02-25T04:40:51.145Z,2.1
2023-02-25T04:41:59.484Z,2.1
2023-02-25T04:43:07.845Z,2.1
2023-02-25T04:44:16.385Z,4.4
2023-02-25T04:45:26.713Z,4.4
2023-02-25T04:46:33.138Z,4.4
2023-02-25T04:47:41.639Z,2.3
2023-02-25T04:48:49.995Z,2.3
2023-02-25T04:49:58.353Z,2.3
2023-02-25T04:51:06.889Z,2.5
2023-02-25T04:52:15.242Z,2.5
2023-02-25T04:53:23.603Z,2.5
2023-02-25T04:54:32.127Z,2.7
2023-02-25T04:55:40.482Z,2.7
2023-02-25T04:56:48.826Z,2.7
2023-02-25T04:57:57.375Z,2.3
2023-02-25T04:59:05.715Z,2.3
2023-02-25T05:00:14.064Z,2.3
2023-02-25T05:01:22.673Z,3.5
2023-02-25T05:02:30.950Z,3.5
2023-02-25T05:03:39.287Z,3.5
2023-02-25T05:04:47.884Z,4.1
2023-02-25T05:05:56.220Z,4.1
2023-02-25T05:07:04.560Z,4.1
2023-02-25T05:08:13.105Z,4.1
2023-02-25T05:09:21.461Z,4.1
2023-02-25T05:10:29.781Z,4.1
2023-02-25T05:11:38.320Z,5.3
2023-02-25T05:12:46.657Z,5.3
2023-02-25T05:13:54.993Z,5.3
2023-02-25T05:15:03.539Z,3
2023-02-25T05:16:11.960Z,3
2023-02-25T05:17:20.240Z,3
2023-02-25T05:18:28.781Z,4.6
2023-02-25T05:19:37.124Z,4.6
2023-02-25T05:20:45.483Z,4.6
2023-02-25T05:21:54.021Z,4
2023-02-25T05:23:02.370Z,4
2023-02-25T05:24:10.722Z,4
2023-02-25T05:25:19.278Z,3.4
2023-02-25T05:26:27.603Z,3.4
2023-02-25T05:27:35.942Z,3.4
2023-02-25T05:28:44.516Z,4.1
2023-02-25T05:29:53.004Z,4.1
2023-02-25T05:31:01.327Z,4.1
2023-02-25T05:32:09.891Z,5.2
2023-02-25T05:33:18.122Z,5.2
2023-02-25T05:34:26.465Z,5.2
2023-02-25T05:35:35.016Z,3.8
2023-02-25T05:36:43.346Z,3.8
2023-02-25T05:37:51.685Z,3.8
2023-02-25T05:39:00.227Z,4.1
2023-02-25T05:40:08.565Z,4.1
2023-02-25T05:41:16.967Z,4.1
2023-02-25T05:42:25.462Z,3.4
2023-02-25T05:43:33.807Z,3.4
2023-02-25T05:44:42.146Z,3.4
2023-02-25T05:45:50.715Z,4.1
2023-02-25T05:46:59.120Z,4.1
2023-02-25T05:48:07.419Z,4.1
2023-02-25T05:49:15.960Z,4.4
2023-02-25T05:50:24.300Z,4.4
2023-02-25T05:51:32.655Z,4.4
2023-02-25T05:52:41.206Z,6.7
2023-02-25T05:53:49.540Z,6.7
2023-02-25T05:54:57.882Z,6.7
2023-02-25T05:56:06.449Z,4.8
2023-02-25T05:57:14.789Z,4.8
2023-02-25T05:58:23.106Z,4.8
2023-02-25T05:59:31.649Z,6.2
2023-02-25T06:00:40.040Z,6.2
2023-02-25T06:01:48.392Z,6.2
2023-02-25T06:02:56.964Z,4.6
2023-02-25T06:04:05.248Z,4.6
2023-02-25T06:05:13.579Z,4.6
2023-02-25T06:06:22.406Z,5
2023-02-25T06:07:30.479Z,5
2023-02-25T06:08:38.857Z,5
2023-02-25T06:09:47.378Z,3.2
2023-02-25T06:10:55.710Z,3.2
2023-02-25T06:12:04.090Z,3.2
2023-02-25T06:13:12.679Z,4.9
2023-02-25T06:14:20.985Z,4.9
2023-02-25T06:15:29.342Z,4.9
2023-02-25T06:16:37.926Z,5.4
2023-02-25T06:17:46.233Z,5.4
2023-02-25T06:18:54.564Z,5.4
2023-02-25T06:20:03.106Z,5
2023-02-25T06:21:11.458Z,5
2023-02-25T06:22:19.797Z,5
2023-02-25T06:23:28.342Z,4.1
2023-02-25T06:24:36.699Z,4.1
2023-02-25T06:25:45.021Z,4.1
2023-02-25T06:26:53.572Z,3.3
2023-02-25T06:28:01.929Z,3.3
2023-02-25T06:29:10.283Z,3.3
2023-02-25T06:30:18.816Z,4.2
2023-02-25T06:31:27.194Z,4.2
2023-02-25T06:32:35.670Z,4.2
2023-02-25T06:33:44.142Z,4.6
2023-02-25T06:34:52.509Z,4.6
2023-02-25T06:36:00.847Z,4.6
2023-02-25T06:37:09.507Z,6.4
2023-02-25T06:38:17.874Z,6.4
2023-02-25T06:39:26.240Z,6.4
2023-02-25T06:40:34.855Z,5
2023-02-25T06:41:43.173Z,5
2023-02-25T06:42:51.555Z,5
2023-02-25T06:44:00.129Z,3.6
2023-02-25T06:45:08.473Z,3.6
2023-02-25T06:46:16.869Z,3.6
2023-02-25T06:47:25.393Z,4.6
2023-02-25T06:48:33.756Z,4.6
2023-02-25T06:49:42.099Z,4.6
2023-02-25T06:50:50.653Z,3.9
2023-02-25T06:51:59.008Z,3.9
2023-02-25T06:53:07.369Z,3.9
2023-02-25T06:54:15.905Z,2.8
2023-02-25T06:55:24.253Z,2.8
2023-02-25T06:56:32.611Z,2.8
2023-02-25T06:57:41.156Z,3.6
2023-02-25T06:58:49.530Z,3.6
2023-02-25T06:59:57.905Z,3.6
2023-02-25T07:01:06.504Z,1.8
2023-02-25T07:02:14.831Z,1.8
2023-02-25T07:03:23.177Z,1.8
2023-02-25T07:04:31.836Z,2.9
2023-02-25T07:05:40.105Z,2.9
2023-02-25T07:06:48.491Z,2.9
2023-02-25T07:07:57.050Z,1.8
2023-02-25T07:09:05.389Z,1.8
2023-02-25T07:10:13.797Z,1.8
2023-02-25T07:11:22.307Z,1.7
2023-02-25T07:12:30.678Z,1.7
2023-02-25T07:13:39.016Z,1.7
2023-02-25T07:14:47.603Z,1.7
2023-02-25T07:15:56.046Z,1.7
2023-02-25T07:17:04.402Z,1.7
2023-02-25T07:18:12.953Z,1.3
2023-02-25T07:19:22.035Z,1.3
2023-02-25T07:20:30.398Z,1.3
2023-02-25T07:21:38.963Z,3.5
2023-02-25T07:22:47.328Z,3.5
2023-02-25T07:23:55.674Z,3.5
2023-02-25T07:25:04.323Z,1.8
2023-02-25T07:26:12.626Z,1.8
2023-02-25T07:27:20.974Z,1.8
2023-02-25T07:28:29.541Z,3.1
2023-02-25T07:29:37.932Z,3.1
2023-02-25T07:30:46.367Z,3.1
2023-02-25T07:31:55.127Z,2.3
2023-02-25T07:33:03.302Z,2.3
2023-02-25T07:34:11.638Z,2.3
2023-02-25T07:35:20.242Z,3
2023-02-25T07:36:28.635Z,3
2023-02-25T07:37:37.122Z,3
2023-02-25T07:38:45.685Z,2.1
2023-02-25T07:39:54.033Z,2.1
2023-02-25T07:41:02.384Z,2.1
2023-02-25T07:42:10.940Z,2.8
2023-02-25T07:43:19.292Z,2.8
2023-02-25T07:44:27.637Z,2.8
2023-02-25T07:45:36.192Z,3
2023-02-25T07:46:44.523Z,3
2023-02-25T07:47:52.890Z,3
2023-02-25T07:49:01.475Z,3.4
2023-02-25T07:50:12.376Z,3.4
2023-02-25T07:51:18.113Z,3.4
2023-02-25T07:52:26.681Z,3.5
2023-02-25T07:53:35.481Z,3.5
2023-02-25T07:54:43.836Z,3.5
2023-02-25T07:55:52.860Z,3.7
2023-02-25T07:57:02.816Z,3.7
2023-02-25T07:58:11.735Z,3.7
2023-02-25T07:59:20.456Z,1.9
2023-02-25T08:00:28.805Z,1.9
2023-02-25T08:01:37.145Z,1.9
2023-02-25T08:02:45.705Z,3.5
2023-02-25T08:03:54.027Z,3.5
2023-02-25T08:05:02.390Z,3.5
2023-02-25T08:06:10.908Z,3.2
2023-02-25T08:07:19.266Z,3.2
2023-02-25T08:08:27.610Z,3.2
2023-02-25T08:09:36.596Z,5.7
2023-02-25T08:10:45.053Z,5.7
2023-02-25T08:11:53.403Z,5.7
2023-02-25T08:13:01.972Z,3.7
2023-02-25T08:14:10.302Z,3.7
2023-02-25T08:15:18.634Z,3.7
2023-02-25T08:16:27.181Z,4
2023-02-25T08:17:35.551Z,4
2023-02-25T08:18:43.896Z,4
2023-02-25T08:19:52.446Z,4.1
2023-02-25T08:21:02.832Z,4.1
2023-02-25T08:22:09.139Z,4.1
2023-02-25T08:23:17.708Z,5.7
2023-02-25T08:24:26.043Z,5.7
2023-02-25T08:25:34.411Z,5.7
2023-02-25T08:26:42.957Z,3.8
2023-02-25T08:27:51.310Z,3.8
2023-02-25T08:28:59.659Z,3.8
2023-02-25T08:30:08.216Z,4.7
2023-02-25T08:31:16.674Z,4.7
2023-02-25T08:32:25.036Z,4.7
2023-02-25T08:33:33.449Z,2.7
2023-02-25T08:34:41.785Z,2.7
2023-02-25T08:35:50.115Z,2.7
2023-02-25T08:36:58.679Z,4.3
2023-02-25T08:38:07.020Z,4.3
2023-02-25T08:39:15.376Z,4.3
2023-02-25T08:40:23.922Z,5.2
2023-02-25T08:41:32.299Z,5.2
2023-02-25T08:42:40.624Z,5.2
2023-02-25T08:43:49.178Z,4.8
2023-02-25T08:44:57.522Z,4.8
2023-02-25T08:46:05.869Z,4.8
2023-02-25T08:47:14.424Z,5.7
2023-02-25T08:48:22.769Z,5.7
2023-02-25T08:49:31.113Z,5.7
2023-02-25T08:50:39.685Z,53.5
2023-02-25T08:51:48.038Z,53.5
2023-02-25T08:52:56.422Z,53.5
2023-02-25T08:54:04.967Z,100.4
2023-02-25T08:55:13.288Z,100.4
2023-02-25T08:56:21.626Z,100.4
2023-02-25T08:57:30.168Z,28.1
2023-02-25T08:58:38.518Z,28.1
2023-02-25T08:59:46.863Z,28.1
2023-02-25T09:00:55.479Z,29.5
2023-02-25T09:02:03.741Z,29.5
2023-02-25T09:03:12.104Z,29.5
2023-02-25T09:04:20.687Z,33.299999
2023-02-25T09:05:29.005Z,33.299999
2023-02-25T09:06:37.338Z,33.299999
2023-02-25T09:07:45.908Z,75.800003
2023-02-25T09:08:54.293Z,75.800003
2023-02-25T09:10:02.594Z,75.800003
2023-02-25T09:11:11.151Z,72.5
2023-02-25T09:12:19.482Z,72.5
2023-02-25T09:13:27.825Z,72.5
2023-02-25T09:14:36.412Z,44
2023-02-25T09:15:45.346Z,44
2023-02-25T09:16:53.734Z,44
2023-02-25T09:18:02.471Z,6.5
2023-02-25T09:19:10.835Z,6.5
2023-02-25T09:20:19.408Z,6.5
2023-02-25T09:21:28.616Z,4.5
2023-02-25T09:22:36.939Z,4.5
2023-02-25T09:23:45.299Z,4.5
2023-02-25T09:24:53.866Z,6.3
2023-02-25T09:26:02.181Z,6.3
2023-02-25T09:27:10.496Z,6.3
2023-02-25T09:28:19.052Z,5.9
2023-02-25T09:29:27.381Z,5.9
2023-02-25T09:30:35.713Z,5.9
2023-02-25T09:31:44.409Z,5.2
2023-02-25T09:32:52.696Z,5.2
2023-02-25T09:34:00.942Z,5.2
2023-02-25T09:35:09.494Z,3.6
2023-02-25T09:36:17.837Z,3.6
2023-02-25T09:37:26.201Z,3.6
2023-02-25T09:38:34.724Z,5.4
2023-02-25T09:39:43.100Z,5.4
2023-02-25T09:40:51.431Z,5.4
2023-02-25T09:41:59.954Z,3.2
2023-02-25T09:43:08.298Z,3.2
2023-02-25T09:44:16.651Z,3.2
2023-02-25T09:45:25.170Z,4.2
2023-02-25T09:46:33.515Z,4.2
2023-02-25T09:47:41.889Z,4.2
2023-02-25T09:48:50.385Z,4.2
2023-02-25T09:49:58.731Z,4.2
2023-02-25T09:51:07.064Z,4.2
2023-02-25T09:52:15.605Z,4
2023-02-25T09:53:23.939Z,4
2023-02-25T09:54:32.281Z,4
2023-02-25T09:55:40.839Z,6.4
2023-02-25T09:56:49.199Z,6.4
2023-02-25T09:57:57.556Z,6.4
2023-02-25T09:59:06.125Z,5
2023-02-25T10:00:14.468Z,5
2023-02-25T10:01:23.124Z,5
2023-02-25T10:02:31.434Z,16.200001
2023-02-25T10:03:39.681Z,16.200001
2023-02-25T10:04:48.025Z,16.200001
2023-02-25T10:05:56.550Z,5.5
2023-02-25T10:07:04.896Z,5.5
2023-02-25T10:08:13.253Z,5.5
2023-02-25T10:09:21.814Z,2.2
2023-02-25T10:10:30.143Z,2.2
2023-02-25T10:11:38.463Z,2.2
2023-02-25T10:12:47.044Z,4.6
2023-02-25T10:13:55.351Z,4.6
2023-02-25T10:15:03.693Z,4.6
2023-02-25T10:16:12.212Z,10.3
2023-02-25T10:17:20.550Z,10.3
2023-02-25T10:18:28.885Z,10.3
2023-02-25T10:19:37.426Z,3.8
2023-02-25T10:20:45.831Z,3.8
2023-02-25T10:21:54.203Z,3.8
2023-02-25T10:23:02.748Z,6.2
2023-02-25T10:24:11.093Z,6.2
2023-02-25T10:25:19.418Z,6.2
2023-02-25T10:26:27.989Z,4.4
2023-02-25T10:27:36.328Z,4.4
2023-02-25T10:28:44.698Z,4.4
2023-02-25T10:29:53.208Z,5.7
2023-02-25T10:31:01.617Z,5.7
2023-02-25T10:32:10.145Z,5.7
2023-02-25T10:33:18.550Z,7
2023-02-25T10:34:26.909Z,7
2023-02-25T10:35:35.285Z,7
2023-02-25T10:36:43.791Z,8.9
2023-02-25T10:37:52.149Z,8.9
2023-02-25T10:39:00.478Z,8.9
2023-02-25T10:40:09.027Z,8.8
2023-02-25T10:41:17.357Z,8.8
2023-02-25T10:42:25.710Z,8.8
2023-02-25T10:43:34.242Z,10.6
2023-02-25T10:44:42.651Z,10.6
2023-02-25T10:45:50.977Z,10.6
2023-02-25T10:46:59.489Z,11.1
2023-02-25T10:48:07.803Z,11.1
2023-02-25T10:49:16.584Z,11.1
2023-02-25T10:50:35.670Z,21.1
2023-02-25T10:51:33.022Z,21.1
2023-02-25T10:52:41.329Z,21.1
2023-02-25T10:53:49.854Z,10.1
2023-02-25T10:54:58.200Z,10.1
2023-02-25T10:56:06.538Z,10.1
2023-02-25T10:57:15.082Z,3.5
2023-02-25T10:58:23.413Z,3.5
2023-02-25T10:59:31.747Z,3.5
2023-02-25T11:00:40.314Z,4.9
2023-02-25T11:01:48.642Z,4.9
2023-02-25T11:02:57.013Z,4.9
2023-02-25T11:04:05.486Z,7.4
2023-02-25T11:05:13.841Z,7.4
2023-02-25T11:06:23.241Z,7.4
2023-02-25T11:07:30.715Z,4.4
2023-02-25T11:08:39.046Z,4.4
2023-02-25T11:09:47.376Z,4.4
2023-02-25T11:10:55.921Z,5.8
2023-02-25T11:12:04.255Z,5.8
2023-02-25T11:13:12.588Z,5.8
2023-02-25T11:14:21.135Z,4.8
2023-02-25T11:15:43.458Z,4.8
2023-02-25T11:16:37.873Z,4.8
2023-02-25T11:17:46.353Z,5.4
2023-02-25T11:18:54.692Z,5.4
2023-02-25T11:20:03.039Z,5.4
2023-02-25T11:21:11.559Z,4.2
2023-02-25T11:22:19.884Z,4.2
2023-02-25T11:23:28.586Z,4.2
2023-02-25T11:24:36.751Z,3.8
2023-02-25T11:25:45.094Z,3.8
2023-02-25T11:26:53.415Z,3.8
2023-02-25T11:28:01.949Z,4.1
2023-02-25T11:29:10.303Z,4.1
2023-02-25T11:30:18.633Z,4.1
2023-02-25T11:31:27.596Z,13.7
2023-02-25T11:32:35.756Z,13.7
2023-02-25T11:33:43.823Z,13.7
2023-02-25T11:34:52.363Z,2.8
2023-02-25T11:36:00.696Z,2.8
2023-02-25T11:37:09.409Z,2.8
2023-02-25T11:38:17.572Z,3.2
2023-02-25T11:39:25.899Z,3.2
2023-02-25T11:40:34.280Z,3.2
2023-02-25T11:41:42.807Z,4.6
2023-02-25T11:42:51.134Z,4.6
2023-02-25T11:44:01.704Z,4.6
2023-02-25T11:45:08.020Z,2
2023-02-25T11:46:16.378Z,2
2023-02-25T11:47:24.680Z,2
2023-02-25T11:48:33.241Z,1.4
2023-02-25T11:49:42.540Z,1.4
2023-02-25T11:50:49.948Z,1.4
2023-02-25T11:51:58.489Z,3.2
2023-02-25T11:53:06.859Z,3.2
2023-02-25T11:54:15.177Z,3.2
2023-02-25T11:55:23.736Z,3
2023-02-25T11:56:32.085Z,3
2023-02-25T11:57:40.429Z,3
2023-02-25T11:58:49.003Z,4
2023-02-25T11:59:57.342Z,4
2023-02-25T12:01:05.661Z,4
2023-02-25T12:02:14.223Z,2
2023-02-25T12:03:22.554Z,2
2023-02-25T12:04:30.929Z,2
2023-02-25T12:05:39.488Z,2.2
2023-02-25T12:06:47.779Z,2.2
2023-02-25T12:08:12.240Z,2.2
2023-02-25T12:09:04.667Z,1.7
2023-02-25T12:10:13.005Z,1.7
2023-02-25T12:11:23.195Z,1.7
2023-02-25T12:12:29.885Z,2.8
2023-02-25T12:13:38.252Z,2.8
2023-02-25T12:14:46.555Z,2.8
2023-02-25T12:15:55.135Z,2.5
2023-02-25T12:17:03.448Z,2.5
2023-02-25T12:18:11.795Z,2.5
2023-02-25T12:19:20.302Z,2
2023-02-25T12:20:28.686Z,2
2023-02-25T12:21:36.995Z,2
2023-02-25T12:22:45.567Z,1.8
2023-02-25T12:23:53.866Z,1.8
2023-02-25T12:25:02.201Z,1.8
2023-02-25T12:26:10.730Z,2.2
2023-02-25T12:27:19.060Z,2.2
2023-02-25T12:28:27.408Z,2.2
2023-02-25T12:29:35.933Z,1.6
2023-02-25T12:30:44.303Z,1.6
2023-02-25T12:31:52.792Z,1.6
2023-02-25T12:33:01.169Z,1.7
2023-02-25T12:34:09.491Z,1.7
2023-02-25T12:35:17.836Z,1.7
2023-02-25T12:36:26.400Z,1.7
2023-02-25T12:37:34.715Z,1.7
2023-02-25T12:38:43.064Z,1.7
2023-02-25T12:39:51.605Z,2
2023-02-25T12:40:59.939Z,2
2023-02-25T12:42:08.282Z,2
2023-02-25T12:43:16.833Z,2
2023-02-25T12:44:25.189Z,2
2023-02-25T12:45:33.563Z,2
2023-02-25T12:46:42.068Z,3.4
2023-02-25T12:47:50.415Z,3.4
2023-02-25T12:48:58.733Z,3.4
2023-02-25T12:50:07.284Z,9.9
2023-02-25T12:51:15.651Z,9.9
2023-02-25T12:52:23.997Z,9.9
2023-02-25T12:53:32.553Z,17.4
2023-02-25T12:54:40.867Z,17.4
2023-02-25T12:55:49.202Z,17.4
2023-02-25T12:56:57.737Z,15.1
2023-02-25T12:58:06.065Z,15.1
2023-02-25T12:59:14.422Z,15.1
2023-02-25T13:00:22.968Z,3
2023-02-25T13:01:31.346Z,3
2023-02-25T13:02:39.636Z,3
2023-02-25T13:03:48.235Z,2.6
2023-02-25T13:04:56.498Z,2.6
2023-02-25T13:06:04.832Z,2.6
2023-02-25T13:07:13.372Z,2.4
2023-02-25T13:08:21.755Z,2.4
2023-02-25T13:09:30.035Z,2.4
2023-02-25T13:10:38.576Z,6.7
2023-02-25T13:12:10.420Z,6.7
2023-02-25T13:12:55.260Z,6.7
2023-02-25T13:14:03.790Z,9.1
2023-02-25T13:15:12.129Z,9.1
2023-02-25T13:16:20.484Z,9.1
2023-02-25T13:17:29.001Z,4.5
2023-02-25T13:18:37.326Z,4.5
2023-02-25T13:19:45.675Z,4.5
2023-02-25T13:20:54.209Z,6.3
2023-02-25T13:22:02.532Z,6.3
2023-02-25T13:23:10.857Z,6.3
2023-02-25T13:24:19.453Z,3.4
2023-02-25T13:25:27.730Z,3.4
2023-02-25T13:26:36.059Z,3.4
2023-02-25T13:27:44.592Z,5.1
2023-02-25T13:28:52.932Z,5.1
2023-02-25T13:30:01.264Z,5.1
2023-02-25T13:31:09.814Z,2.6
2023-02-25T13:32:18.279Z,2.6
2023-02-25T13:33:26.465Z,2.6
2023-02-25T13:34:35.011Z,3
2023-02-25T13:35:43.352Z,3
2023-02-25T13:36:51.676Z,3
2023-02-25T13:38:00.205Z,4.2
2023-02-25T13:39:08.548Z,4.2
2023-02-25T13:40:16.914Z,4.2
2023-02-25T13:41:25.632Z,3.6
2023-02-25T13:42:33.780Z,3.6
2023-02-25T13:43:42.101Z,3.6
2023-02-25T13:44:50.640Z,4.1
2023-02-25T13:45:59.053Z,4.1
2023-02-25T13:47:07.386Z,4.1
2023-02-25T13:48:15.928Z,1.8
2023-02-25T13:49:24.253Z,1.8
2023-02-25T13:50:32.587Z,1.8
2023-02-25T13:51:41.129Z,2.2
2023-02-25T13:52:49.473Z,2.2
2023-02-25T13:53:57.799Z,2.2
2023-02-25T13:55:06.330Z,3.9
2023-02-25T13:56:14.706Z,3.9
2023-02-25T13:57:23.014Z,3.9
2023-02-25T13:58:31.574Z,3.4
2023-02-25T13:59:39.962Z,3.4
2023-02-25T14:00:48.230Z,3.4
2023-02-25T14:01:56.754Z,2.5
2023-02-25T14:03:05.117Z,2.5
2023-02-25T14:04:13.422Z,2.5
2023-02-25T14:05:23.772Z,3.6
2023-02-25T14:06:30.336Z,3.6
2023-02-25T14:07:38.644Z,3.6
2023-02-25T14:08:47.179Z,2.4
2023-02-25T14:09:55.501Z,2.4
2023-02-25T14:11:03.842Z,2.4
2023-02-25T14:12:13.306Z,2.6
2023-02-25T14:13:20.706Z,2.6
2023-02-25T14:14:29.025Z,2.6
2023-02-25T14:15:37.701Z,2.4
2023-02-25T14:16:45.938Z,2.4
2023-02-25T14:17:54.270Z,2.4
2023-02-25T14:19:02.839Z,1.5
2023-02-25T14:20:11.152Z,1.5
2023-02-25T14:21:19.494Z,1.5
2023-02-25T14:22:28.063Z,2.3
2023-02-25T14:23:36.409Z,2.3
2023-02-25T14:24:44.731Z,2.3
2023-02-25T14:25:53.280Z,2
2023-02-25T14:27:01.609Z,2
2023-02-25T14:28:10.984Z,2
2023-02-25T14:29:18.483Z,2.6
2023-02-25T14:30:26.914Z,2.6
2023-02-25T15:04:28.339Z,0
2023-02-25T15:05:36.645Z,0
2023-02-25T15:06:44.969Z,0
2023-02-25T15:07:53.517Z,17.5
2023-02-25T15:09:01.854Z,17.5
2023-02-25T15:10:10.521Z,17.5
2023-02-25T15:11:19.095Z,10.7
2023-02-25T15:12:27.397Z,10.7
2023-02-25T15:13:35.772Z,10.7
2023-02-25T15:14:44.310Z,5
2023-02-25T15:15:52.712Z,5
2023-02-25T15:17:01.004Z,5
2023-02-25T15:18:09.589Z,5.7
2023-02-25T15:19:17.899Z,5.7
2023-02-25T15:20:26.290Z,5.7
2023-02-25T15:21:34.793Z,3.3
2023-02-25T15:22:43.147Z,3.3
2023-02-25T15:23:51.466Z,3.3
2023-02-25T15:25:00.008Z,3.1
2023-02-25T15:26:08.351Z,3.1
2023-02-25T15:27:16.692Z,3.1
2023-02-25T15:28:25.232Z,2
2023-02-25T15:29:33.584Z,2
2023-02-25T15:30:41.966Z,2
2023-02-25T15:31:50.514Z,1.7
2023-02-25T15:32:58.789Z,1.7
2023-02-25T15:34:07.147Z,1.7
2023-02-25T15:35:15.709Z,0.8
2023-02-25T15:36:24.050Z,0.8
2023-02-25T15:37:32.341Z,0.8
2023-02-25T15:38:40.882Z,5.3
2023-02-25T15:39:49.233Z,5.3
2023-02-25T15:40:57.574Z,5.3
2023-02-25T15:42:06.099Z,4.8
2023-02-25T15:43:14.430Z,4.8
2023-02-25T15:44:22.773Z,4.8
2023-02-25T15:45:31.311Z,5.2
2023-02-25T15:46:39.762Z,5.2
2023-02-25T15:47:48.005Z,5.2
2023-02-25T15:48:56.550Z,2.4
2023-02-25T15:50:04.888Z,2.4
2023-02-25T15:51:13.228Z,2.4
2023-02-25T15:52:21.803Z,2.6
2023-02-25T15:53:30.100Z,2.6
2023-02-25T15:54:38.430Z,2.6
2023-02-25T15:55:46.968Z,1.9
2023-02-25T15:56:55.344Z,1.9
2023-02-25T15:58:03.674Z,1.9
2023-02-25T15:59:12.217Z,6.8
2023-02-25T16:00:20.595Z,6.8
2023-02-25T16:01:29.023Z,6.8
2023-02-25T16:02:37.459Z,4.7
2023-02-25T16:03:45.875Z,4.7
2023-02-25T16:04:54.182Z,4.7
2023-02-25T16:06:02.734Z,21.700001
2023-02-25T16:07:11.088Z,21.700001
2023-02-25T16:08:19.462Z,21.700001
2023-02-25T16:09:28.020Z,33.5
2023-02-25T16:10:36.348Z,33.5
2023-02-25T16:11:44.687Z,33.5
2023-02-25T16:12:53.226Z,2.2
2023-02-25T16:14:01.559Z,2.2
2023-02-25T16:15:09.893Z,2.2
2023-02-25T16:16:18.497Z,4.6
2023-02-25T16:17:26.782Z,4.6